Time;durP1;ratioP1;P1;durP2;ratioP2;P2;SDS_P1;SDS_P2;PMS_P1;PMS_P2;Temp;Humidity;BMP_temperature;BMP_pressure;BME280_temperature;BME280_humidity;BME280_pressure;Samples;Min_cycle;Max_cycle;Signal;HPM_P1;HPM_P2
2022/12/26 00:02:13;;;;;;;0.00;0.00;;;8.90;99.90;;;;;;5093608;28;20101;-83
2022/12/26 00:04:39;;;;;;;0.00;0.00;;;8.90;99.90;;;;;;5076707;28;20392;-83
2022/12/26 00:07:05;;;;;;;0.13;0.13;;;8.80;99.90;;;;;;5076664;28;20054;-83
2022/12/26 00:09:32;;;;;;;0.00;0.00;;;8.90;99.90;;;;;;5076407;28;20140;-83
2022/12/26 00:11:58;;;;;;;0.52;0.10;;;8.90;99.90;;;;;;5059943;28;20089;-83
2022/12/26 00:14:23;;;;;;;0.00;0.00;;;8.90;99.90;;;;;;5059801;28;20040;-83
2022/12/26 00:16:49;;;;;;;0.00;0.00;;;8.90;99.90;;;;;;5093549;28;20054;-84
2022/12/26 00:19:15;;;;;;;0.00;0.00;;;8.90;99.90;;;;;;5076437;28;20400;-83
2022/12/26 00:21:41;;;;;;;0.35;0.35;;;8.80;99.90;;;;;;5077137;28;20048;-83
2022/12/26 00:24:10;;;;;;;0.10;0.10;;;8.90;99.90;;;;;;5093255;28;20051;-83
2022/12/26 00:26:36;;;;;;;0.10;0.10;;;8.90;99.90;;;;;;5076535;28;20036;-83
2022/12/26 00:29:02;;;;;;;0.00;0.00;;;8.90;99.90;;;;;;5093129;28;20063;-83
2022/12/26 00:31:33;;;;;;;0.32;0.20;;;8.90;99.90;;;;;;5077690;28;20052;-84
2022/12/26 00:34:00;;;;;;;0.00;0.00;;;8.90;99.90;;;;;;5094009;28;20058;-84
2022/12/26 00:36:32;;;;;;;0.65;0.65;;;8.90;99.90;;;;;;5076806;28;20605;-84
2022/12/26 00:39:00;;;;;;;0.20;0.10;;;8.90;99.90;;;;;;5076143;28;20055;-84
2022/12/26 00:41:26;;;;;;;0.00;0.00;;;8.90;99.90;;;;;;5075841;28;20137;-84
2022/12/26 00:43:54;;;;;;;0.47;0.28;;;8.90;99.90;;;;;;5076336;28;20051;-84
2022/12/26 00:46:20;;;;;;;0.00;0.00;;;8.90;99.90;;;;;;5076148;28;20047;-84
2022/12/26 00:48:46;;;;;;;1.77;0.50;;;8.90;99.90;;;;;;5076091;28;20059;-85
2022/12/26 00:51:13;;;;;;;0.00;0.00;;;8.90;99.90;;;;;;5076257;28;20047;-85
2022/12/26 00:53:44;;;;;;;0.00;0.00;;;8.90;99.90;;;;;;5059112;28;20048;-85
2022/12/26 00:56:10;;;;;;;0.10;0.10;;;8.90;99.90;;;;;;5093191;28;20135;-85
2022/12/26 00:58:40;;;;;;;0.00;0.00;;;8.90;99.90;;;;;;5075877;28;20044;-85
2022/12/26 01:01:15;;;;;;;2.10;0.25;;;8.90;99.90;;;;;;5075906;28;20043;-86
2022/12/26 01:03:44;;;;;;;0.00;0.00;;;8.90;99.90;;;;;;5076433;28;20048;-85
2022/12/26 01:06:10;;;;;;;0.00;0.00;;;8.90;99.90;;;;;;5076050;28;20044;-85
2022/12/26 01:08:36;;;;;;;0.10;0.10;;;8.90;99.90;;;;;;5075187;28;20090;-85
2022/12/26 01:11:22;;;;;;;;;;;;;;;;;;;;;
2022/12/26 01:13:50;;;;;;;0.03;0.00;;;8.90;99.90;;;;;;5092735;28;20535;-86
2022/12/26 01:16:18;;;;;;;0.00;0.00;;;8.90;99.90;;;;;;5076044;28;20403;-85
2022/12/26 01:18:44;;;;;;;0.10;0.05;;;8.90;99.90;;;;;;5075983;28;20079;-85
2022/12/26 01:21:10;;;;;;;0.25;0.20;;;8.90;99.90;;;;;;5076403;28;20090;-85
2022/12/26 01:23:36;;;;;;;0.10;0.00;;;8.90;99.90;;;;;;5092987;28;20143;-85
2022/12/26 01:26:05;;;;;;;0.00;0.00;;;8.90;99.90;;;;;;5075789;28;20470;-84
2022/12/26 01:28:30;;;;;;;0.00;0.00;;;8.90;99.90;;;;;;5092430;28;20491;-85
2022/12/26 01:31:00;;;;;;;0.20;0.15;;;8.90;99.90;;;;;;5076234;28;20048;-84
2022/12/26 01:33:26;;;;;;;0.20;0.20;;;8.90;99.90;;;;;;5075720;28;20192;-83
2022/12/26 01:35:52;;;;;;;3.45;0.47;;;8.90;99.90;;;;;;5092469;28;20040;-83
2022/12/26 01:38:19;;;;;;;0.00;0.00;;;8.90;99.90;;;;;;5091966;28;20048;-83
2022/12/26 01:40:45;;;;;;;0.00;0.00;;;8.90;99.90;;;;;;5091899;28;20102;-83
2022/12/26 01:43:13;;;;;;;0.05;0.05;;;8.90;99.90;;;;;;5092393;28;20058;-83
2022/12/26 01:45:39;;;;;;;2.13;0.00;;;8.90;99.90;;;;;;5075520;28;20040;-83
2022/12/26 01:48:24;;;;;;;0.00;0.00;;;8.90;99.90;;;;;;5058544;28;20048;-83
2022/12/26 01:51:01;;;;;;;0.00;0.00;;;8.90;99.90;;;;;;5075432;28;20488;-83
2022/12/26 01:53:33;;;;;;;0.35;0.20;;;8.90;99.90;;;;;;5092293;28;20551;-83
2022/12/26 01:56:07;;;;;;;;;;;8.90;99.90;;;;;;5076188;28;20139;-83
2022/12/26 01:58:43;;;;;;;0.00;0.00;;;8.90;99.90;;;;;;5075361;28;20291;-83
2022/12/26 02:01:12;;;;;;;0.00;0.00;;;8.90;99.90;;;;;;5075347;28;20040;-83
2022/12/26 02:06:26;;;;;;;0.00;0.00;;;8.90;99.90;;;;;;5095133;28;20044;-82
2022/12/26 02:08:52;;;;;;;0.00;0.00;;;8.90;99.90;;;;;;5095826;28;20044;-82
2022/12/26 02:11:24;;;;;;;0.00;0.00;;;8.90;99.90;;;;;;5079287;28;20101;-83
2022/12/26 02:13:50;;;;;;;0.05;0.00;;;8.90;99.90;;;;;;5079028;28;20075;-83
2022/12/26 02:16:17;;;;;;;0.00;0.00;;;9.00;99.90;;;;;;5078807;28;20496;-83
2022/12/26 02:18:44;;;;;;;0.55;0.13;;;8.90;99.90;;;;;;5078430;28;20044;-83
2022/12/26 02:21:30;;;;;;;0.10;0.10;;;8.90;99.90;;;;;;5061813;28;20047;-83
2022/12/26 02:24:03;;;;;;;0.80;0.30;;;8.90;99.90;;;;;;5078926;28;20052;-84
2022/12/26 02:27:11;;;;;;;0.00;0.00;;;8.90;99.90;;;;;;5079371;28;20048;-84
2022/12/26 02:30:00;;;;;;;0.20;0.20;;;9.00;99.90;;;;;;5095540;28;20056;-84
2022/12/26 02:32:43;;;;;;;3.83;0.25;;;9.00;99.90;;;;;;5079468;28;20054;-83
2022/12/26 02:35:24;;;;;;;0.00;0.00;;;8.90;99.90;;;;;;5095993;28;20055;-83
2022/12/26 02:38:15;;;;;;;0.10;0.00;;;9.00;99.90;;;;;;5095567;28;20046;-83
2022/12/26 02:41:19;;;;;;;0.20;0.20;;;9.00;99.90;;;;;;5077876;28;20087;-83
2022/12/26 02:43:52;;;;;;;0.20;0.20;;;8.90;99.90;;;;;;5074984;28;20081;-83
2022/12/26 03:13:23;;;;;;;0.10;0.10;;;9.10;99.90;;;;;;5074779;28;20160;-85
2022/12/26 03:18:45;;;;;;;0.03;0.00;;;9.10;99.90;;;;;;5074823;28;20052;-86
2022/12/26 03:21:13;;;;;;;;;;;9.10;99.90;;;;;;5057894;28;20092;-86
2022/12/26 03:23:52;;;;;;;0.43;0.30;;;9.10;99.90;;;;;;5057824;28;20314;-86
2022/12/26 03:26:39;;;;;;;0.63;0.63;;;9.10;99.90;;;;;;5074417;28;20137;-86
2022/12/26 03:32:07;;;;;;;0.47;0.43;;;9.10;99.90;;;;;;5074182;28;20088;-85
2022/12/26 03:34:44;;;;;;;0.00;0.00;;;9.20;99.90;;;;;;5057703;28;20055;-86
2022/12/26 03:37:42;;;;;;;;;;;;;;;;;;;;;
2022/12/26 04:19:26;;;;;;;0.00;0.00;;;9.00;99.90;;;;;;5073711;28;20071;-86
2022/12/26 04:45:43;;;;;;;;;;;;;;;;;;;;;
2022/12/26 04:51:00;;;;;;;0.28;0.28;;;9.10;99.90;;;;;;5073691;28;20066;-86
2022/12/26 04:53:38;;;;;;;0.30;0.30;;;9.10;99.90;;;;;;5039379;28;20484;-86
2022/12/26 04:56:09;;;;;;;0.65;0.30;;;9.10;99.90;;;;;;5056553;28;20048;-86
2022/12/26 04:58:38;;;;;;;0.13;0.13;;;9.10;99.90;;;;;;5056918;28;20040;-86
2022/12/26 05:09:40;;;;;;;4.03;1.20;;;9.00;99.90;;;;;;5073038;28;20445;-86
2022/12/26 05:12:14;;;;;;;0.10;0.10;;;9.00;99.90;;;;;;5056277;28;20080;-86
2022/12/26 05:14:50;;;;;;;0.65;0.20;;;9.00;99.90;;;;;;5056125;28;20055;-86
2022/12/26 05:28:40;;;;;;;0.22;0.22;;;8.90;99.90;;;;;;5072795;28;20415;-86
2022/12/26 05:31:23;;;;;;;0.20;0.20;;;8.90;99.90;;;;;;5072733;28;20385;-85
2022/12/26 05:34:09;;;;;;;0.45;0.43;;;8.90;99.90;;;;;;5056679;28;20137;-86
2022/12/26 05:37:01;;;;;;;0.52;0.52;;;8.90;99.90;;;;;;5073234;28;20048;-86
2022/12/26 05:39:29;;;;;;;0.40;0.40;;;8.90;99.90;;;;;;5057037;28;20049;-85
2022/12/26 05:42:03;;;;;;;2.10;0.82;;;8.80;99.90;;;;;;5059678;28;20178;-86
2022/12/26 05:44:29;;;;;;;0.77;0.77;;;8.80;99.90;;;;;;5059877;28;20481;-87
2022/12/26 05:47:13;;;;;;;0.30;0.22;;;8.80;99.90;;;;;;5059687;28;20045;-86
2022/12/26 05:49:48;;;;;;;0.10;0.00;;;8.80;99.90;;;;;;5059877;28;20396;-86
2022/12/26 05:52:14;;;;;;;0.98;0.13;;;8.80;99.90;;;;;;5058936;28;20488;-86
2022/12/26 05:54:51;;;;;;;0.10;0.10;;;8.80;99.90;;;;;;5059782;28;20140;-86
2022/12/26 05:57:36;;;;;;;0.60;0.35;;;8.80;99.90;;;;;;5060276;28;20059;-86
2022/12/26 06:00:13;;;;;;;0.43;0.28;;;8.80;99.90;;;;;;5059464;28;20530;-87
2022/12/26 06:02:47;;;;;;;0.30;0.30;;;8.70;99.90;;;;;;5060487;28;20048;-86
2022/12/26 06:05:13;;;;;;;0.10;0.10;;;8.70;99.90;;;;;;5076347;28;20443;-86
2022/12/26 06:08:02;;;;;;;0.08;0.08;;;8.70;99.90;;;;;;5060084;28;20056;-87
2022/12/26 06:10:48;;;;;;;2.15;0.75;;;8.60;99.90;;;;;;5058695;28;20090;-86
2022/12/26 06:13:17;;;;;;;0.45;0.38;;;8.60;99.90;;;;;;5076153;28;20480;-86
2022/12/26 06:15:45;;;;;;;0.60;0.35;;;8.60;99.90;;;;;;5059110;28;20135;-86
2022/12/26 06:18:26;;;;;;;0.40;0.40;;;8.60;99.90;;;;;;5059668;28;20055;-86
2022/12/26 06:21:07;;;;;;;0.10;0.00;;;8.60;99.90;;;;;;5075983;28;20381;-86
2022/12/26 06:23:46;;;;;;;0.22;0.22;;;8.50;99.90;;;;;;5075675;28;20040;-87
2022/12/26 06:26:15;;;;;;;0.80;0.52;;;8.60;99.90;;;;;;5075820;28;20045;-86
2022/12/26 06:28:46;;;;;;;0.05;0.05;;;8.60;99.90;;;;;;5058805;28;20480;-85
2022/12/26 06:31:21;;;;;;;5.78;1.08;;;8.60;99.90;;;;;;5059682;28;20075;-86
2022/12/26 06:34:04;;;;;;;;;;;;;;;;;;;;;
2022/12/26 06:36:33;;;;;;;0.30;0.30;;;8.60;99.90;;;;;;5075776;28;20126;-86
2022/12/26 06:39:19;;;;;;;0.10;0.10;;;8.60;99.90;;;;;;5075191;28;20052;-86
2022/12/26 06:41:52;;;;;;;0.45;0.45;;;8.60;99.90;;;;;;5057945;28;20496;-86
2022/12/26 06:44:20;;;;;;;1.45;0.10;;;8.70;99.90;;;;;;5042200;28;20109;-85
2022/12/26 06:47:03;;;;;;;1.77;0.32;;;8.60;99.90;;;;;;5059407;28;20051;-86
2022/12/26 06:49:39;;;;;;;0.35;0.30;;;8.70;99.90;;;;;;5058407;28;20548;-86
2022/12/26 06:52:17;;;;;;;;;;;;;;;;;;;;;
2022/12/26 06:55:33;;;;;;;1.17;0.63;;;8.60;99.90;;;;;;5076379;28;20098;-90
2022/12/26 06:58:04;;;;;;;5.60;0.73;;;8.60;99.90;;;;;;5059961;28;20049;-86
2022/12/26 07:00:46;;;;;;;0.10;0.10;;;8.60;99.90;;;;;;5058996;28;20544;-85
2022/12/26 07:03:28;;;;;;;2.08;0.75;;;8.50;99.90;;;;;;5058583;28;20056;-86
2022/12/26 07:06:35;;;;;;;0.15;0.15;;;8.50;99.90;;;;;;5042572;28;20557;-86
2022/12/26 07:09:15;;;;;;;;;;;;;;;;;;;;;
2022/12/26 07:11:54;;;;;;;0.30;0.30;;;8.40;99.90;;;;;;5095447;28;20048;-86
2022/12/26 07:14:20;;;;;;;0.17;0.17;;;8.30;99.90;;;;;;5094752;28;20492;-86
2022/12/26 07:16:48;;;;;;;0.75;0.43;;;8.30;99.90;;;;;;5094272;28;20036;-86
2022/12/26 07:19:31;;;;;;;0.40;0.30;;;8.40;99.90;;;;;;5077959;28;20058;-86
2022/12/26 07:21:57;;;;;;;0.30;0.30;;;8.30;99.90;;;;;;5094743;28;20044;-86
2022/12/26 07:24:26;;;;;;;2.40;0.32;;;8.30;99.90;;;;;;5094651;28;20050;-86
2022/12/26 07:26:54;;;;;;;1.13;0.00;;;8.20;99.90;;;;;;5077958;28;20051;-87
2022/12/26 07:29:26;;;;;;;2.78;0.90;;;8.20;99.90;;;;;;5077999;28;20048;-86
2022/12/26 07:31:54;;;;;;;1.85;0.63;;;8.20;99.90;;;;;;5077650;28;20087;-86
2022/12/26 07:34:30;;;;;;;0.98;0.50;;;8.20;99.90;;;;;;5078086;28;20365;-85
2022/12/26 07:37:01;;;;;;;2.53;0.70;;;8.20;99.90;;;;;;5105072;28;20051;-85
2022/12/26 07:39:37;;;;;;;0.20;0.20;;;8.20;99.90;;;;;;5091833;28;20054;-85
2022/12/26 07:42:23;;;;;;;;;;;;;;;;;;;;;
2022/12/26 07:44:49;;;;;;;0.32;0.25;;;8.20;99.90;;;;;;5098064;28;20040;-86
2022/12/26 07:47:17;;;;;;;0.52;0.43;;;8.20;99.90;;;;;;5094199;28;20051;-85
2022/12/26 07:49:43;;;;;;;0.20;0.15;;;8.20;99.90;;;;;;5093755;28;20058;-85
2022/12/26 07:52:09;;;;;;;0.32;0.30;;;8.20;99.90;;;;;;5060584;28;20135;-85
2022/12/26 07:54:35;;;;;;;0.43;0.10;;;8.20;99.90;;;;;;5094359;28;20471;-85
2022/12/26 07:57:00;;;;;;;0.55;0.55;;;8.10;99.90;;;;;;5077341;28;20051;-86
2022/12/26 07:59:26;;;;;;;0.55;0.10;;;8.20;99.90;;;;;;5077055;28;20130;-85
2022/12/26 08:01:52;;;;;;;0.85;0.52;;;8.20;99.90;;;;;;5077368;28;20388;-86
2022/12/26 08:04:23;;;;;;;0.20;0.20;;;8.20;99.90;;;;;;5094206;28;20055;-87
2022/12/26 08:06:51;;;;;;;0.00;0.00;;;8.20;99.90;;;;;;5060976;28;20131;-85
2022/12/26 08:09:22;;;;;;;1.50;0.20;;;8.20;99.90;;;;;;5076766;28;20051;-86
2022/12/26 08:11:48;;;;;;;1.88;1.08;;;8.20;99.90;;;;;;5077489;28;20043;-86
2022/12/26 08:14:19;;;;;;;0.20;0.20;;;8.20;99.90;;;;;;5078104;28;20177;-85
2022/12/26 08:16:54;;;;;;;0.15;0.15;;;8.20;99.90;;;;;;5094570;28;20040;-85
2022/12/26 08:19:20;;;;;;;1.42;0.32;;;8.20;99.90;;;;;;5076718;28;20396;-85
2022/12/26 08:21:46;;;;;;;0.20;0.20;;;8.20;99.90;;;;;;5093354;28;20044;-85
2022/12/26 08:24:24;;;;;;;0.10;0.00;;;8.30;99.90;;;;;;5076847;28;20094;-85
2022/12/26 08:26:53;;;;;;;0.30;0.30;;;8.30;99.90;;;;;;5076695;28;20079;-85
2022/12/26 08:29:19;;;;;;;1.88;0.20;;;8.30;99.90;;;;;;5093576;28;20130;-81
2022/12/26 08:31:45;;;;;;;0.00;0.00;;;8.30;99.90;;;;;;5093127;28;20098;-81
2022/12/26 08:34:12;;;;;;;0.30;0.17;;;8.30;99.90;;;;;;5075915;28;20051;-81
2022/12/26 08:36:38;;;;;;;1.10;0.52;;;8.40;99.90;;;;;;5092653;28;20052;-82
2022/12/26 08:39:04;;;;;;;0.10;0.10;;;8.40;99.90;;;;;;5075666;28;20051;-81
2022/12/26 08:41:30;;;;;;;0.45;0.38;;;8.40;99.90;;;;;;5075323;28;20052;-81
2022/12/26 08:43:56;;;;;;;0.00;0.00;;;8.40;99.90;;;;;;5076318;28;20052;-81
2022/12/26 08:46:23;;;;;;;0.10;0.10;;;8.50;99.90;;;;;;5093042;28;20097;-81
2022/12/26 08:48:49;;;;;;;0.20;0.10;;;8.50;99.90;;;;;;5075697;28;20044;-81
2022/12/26 08:51:23;;;;;;;0.00;0.00;;;8.70;99.90;;;;;;5092936;28;20048;-81
2022/12/26 08:53:50;;;;;;;0.00;0.00;;;8.80;99.90;;;;;;5076888;28;20040;-81
2022/12/26 08:56:19;;;;;;;0.10;0.10;;;8.90;99.90;;;;;;5092517;28;20778;-81
2022/12/26 08:58:45;;;;;;;0.10;0.10;;;8.90;99.90;;;;;;5076226;28;20055;-81
2022/12/26 09:01:14;;;;;;;0.20;0.13;;;8.90;99.90;;;;;;5092505;28;20048;-81
2022/12/26 09:03:40;;;;;;;0.43;0.10;;;8.90;99.90;;;;;;5092724;28;20048;-81
2022/12/26 09:06:07;;;;;;;0.05;0.00;;;8.90;99.90;;;;;;5092594;28;20121;-84
2022/12/26 09:08:34;;;;;;;0.00;0.00;;;8.90;99.90;;;;;;5075511;28;20476;-83
2022/12/26 09:11:06;;;;;;;0.30;0.10;;;9.00;99.90;;;;;;5075878;28;20097;-83
2022/12/26 09:13:32;;;;;;;1.10;0.00;;;9.10;99.90;;;;;;5092649;28;20052;-82
2022/12/26 09:16:05;;;;;;;0.90;0.80;;;9.10;99.90;;;;;;5096933;28;20534;-82
2022/12/26 09:18:31;;;;;;;0.30;0.00;;;9.20;99.90;;;;;;5096799;28;20126;-82
2022/12/26 09:21:01;;;;;;;4.38;0.10;;;9.30;99.90;;;;;;5096432;28;20147;-82
2022/12/26 09:23:28;;;;;;;0.00;0.00;;;9.30;99.90;;;;;;5080025;28;20083;-82
2022/12/26 09:25:53;;;;;;;0.00;0.00;;;9.30;99.90;;;;;;5080030;28;20054;-81
2022/12/26 09:28:19;;;;;;;1.25;0.00;;;9.30;99.90;;;;;;5096368;28;20126;-82
2022/12/26 09:30:45;;;;;;;0.00;0.00;;;9.30;99.90;;;;;;5079690;28;20097;-81
2022/12/26 09:33:10;;;;;;;0.30;0.25;;;9.40;99.90;;;;;;5063043;28;20535;-82
2022/12/26 09:35:40;;;;;;;0.00;0.00;;;9.40;99.90;;;;;;5079672;28;20101;-82
2022/12/26 09:38:06;;;;;;;0.00;0.00;;;9.40;99.90;;;;;;5079492;28;20396;-81
2022/12/26 09:41:05;;;;;;;0.10;0.10;;;9.40;99.90;;;;;;5078445;28;20074;-82
2022/12/26 09:43:55;;;;;;;0.00;0.00;;;9.40;99.90;;;;;;5079160;28;20472;-81
2022/12/26 09:46:31;;;;;;;0.63;0.15;;;9.40;99.90;;;;;;5096843;28;20044;-81
2022/12/26 09:49:03;;;;;;;0.00;0.00;;;9.50;99.90;;;;;;5079391;28;20079;-83
2022/12/26 09:51:31;;;;;;;0.00;0.00;;;9.50;99.90;;;;;;5079363;28;20468;-81
2022/12/26 09:54:00;;;;;;;0.00;0.00;;;9.50;99.90;;;;;;5096080;28;20386;-82
2022/12/26 09:56:26;;;;;;;0.00;0.00;;;9.50;99.90;;;;;;5078949;28;20048;-86
2022/12/26 09:58:56;;;;;;;0.88;0.60;;;9.50;99.90;;;;;;5062485;28;20056;-82
2022/12/26 10:01:34;;;;;;;0.20;0.00;;;9.50;99.90;;;;;;5095749;28;20040;-84
2022/12/26 10:04:01;;;;;;;0.32;0.30;;;9.60;99.90;;;;;;5100855;28;20054;-81
2022/12/26 10:06:35;;;;;;;0.08;0.00;;;9.60;99.90;;;;;;5099214;28;20487;-81
2022/12/26 10:09:20;;;;;;;0.00;0.00;;;9.60;99.90;;;;;;5116815;28;20131;-84
2022/12/26 10:12:07;;;;;;;0.00;0.00;;;9.70;99.90;;;;;;5116706;28;20052;-84
2022/12/26 10:15:04;;;;;;;;;;;;;;;;;;;;;
2022/12/26 10:17:41;;;;;;;0.00;0.00;;;9.70;99.90;;;;;;5116338;28;20558;-85
2022/12/26 10:20:22;;;;;;;0.00;0.00;;;9.70;99.90;;;;;;5099072;28;20365;-84
2022/12/26 10:23:15;;;;;;;0.30;0.20;;;9.70;99.90;;;;;;5116071;28;20055;-83
2022/12/26 10:25:44;;;;;;;0.00;0.00;;;9.60;99.90;;;;;;5098091;28;20055;-85
2022/12/26 10:28:27;;;;;;;0.00;0.00;;;9.60;99.90;;;;;;5099080;28;20043;-83
2022/12/26 10:30:55;;;;;;;0.10;0.10;;;9.60;99.90;;;;;;5115657;28;20048;-83
2022/12/26 10:33:39;;;;;;;0.10;0.03;;;9.50;99.90;;;;;;5098940;28;20050;-83
2022/12/26 10:36:08;;;;;;;0.00;0.00;;;9.30;99.90;;;;;;5098648;28;20376;-83
2022/12/26 10:38:44;;;;;;;0.00;0.00;;;9.20;99.90;;;;;;5115860;28;20067;-82
2022/12/26 10:41:40;;;;;;;4.70;0.10;;;9.10;99.90;;;;;;5098352;28;20113;-83
2022/12/26 10:44:10;;;;;;;0.00;0.00;;;8.90;99.90;;;;;;5089964;28;20134;-83
2022/12/26 10:47:17;;;;;;;0.00;0.00;;;8.90;99.90;;;;;;5115745;28;20040;-82
2022/12/26 10:49:46;;;;;;;0.00;0.00;;;9.00;99.90;;;;;;5115384;28;20044;-83
2022/12/26 10:52:12;;;;;;;0.00;0.00;;;9.00;99.90;;;;;;5098700;28;20055;-82
2022/12/26 10:54:39;;;;;;;0.00;0.00;;;9.60;99.90;;;;;;5081769;28;20104;-83
2022/12/26 10:57:07;;;;;;;1.55;0.55;;;10.20;99.90;;;;;;5098574;28;20406;-83
2022/12/26 10:59:52;;;;;;;0.00;0.00;;;11.00;99.90;;;;;;5098362;28;20476;-83
2022/12/26 11:02:30;;;;;;;0.00;0.00;;;11.40;99.90;;;;;;5098472;28;20059;-83
2022/12/26 11:05:02;;;;;;;6.50;1.02;;;11.10;99.90;;;;;;5098427;28;20055;-83
2022/12/26 11:07:33;;;;;;;0.00;0.00;;;10.50;99.90;;;;;;5115095;28;20044;-83
2022/12/26 11:10:02;;;;;;;0.20;0.20;;;10.20;99.90;;;;;;5114937;28;20071;-83
2022/12/26 11:12:40;;;;;;;0.00;0.00;;;9.90;99.90;;;;;;5081289;28;20146;-84
2022/12/26 11:15:19;;;;;;;0.20;0.17;;;9.70;99.90;;;;;;5099101;28;20051;-84
2022/12/26 11:17:51;;;;;;;0.00;0.00;;;9.40;99.90;;;;;;5115418;28;20039;-83
2022/12/26 11:20:33;;;;;;;0.00;0.00;;;9.30;99.90;;;;;;5097915;28;20054;-84
2022/12/26 11:23:48;;;;;;;0.00;0.00;;;9.10;99.90;;;;;;5120598;28;20058;-88
2022/12/26 11:27:05;;;;;;;;;;;;;;;;;;;;;
2022/12/26 11:29:31;;;;;;;0.00;0.00;;;8.80;99.90;;;;;;5117715;28;20048;-84
2022/12/26 11:32:25;;;;;;;0.00;0.00;;;8.70;99.90;;;;;;5107349;28;20050;-89
2022/12/26 11:34:50;;;;;;;0.00;0.00;;;8.70;99.90;;;;;;5099372;28;20050;-87
2022/12/26 11:37:47;;;;;;;;;;;;;;;;;;;;;
2022/12/26 11:40:23;;;;;;;0.25;0.25;;;8.50;99.90;;;;;;5099356;28;20433;-86
2022/12/26 11:43:51;;;;;;;13.95;1.13;;;8.40;99.90;;;;;;5099055;28;20073;-89
2022/12/26 11:46:40;;;;;;;;;;;;;;;;;;;;;
2022/12/26 11:52:39;;;;;;;0.45;0.25;;;8.30;99.90;;;;;;5120424;28;20051;-86
2022/12/26 11:55:32;;;;;;;0.00;0.00;;;8.20;99.90;;;;;;5098301;28;20108;-86
2022/12/26 11:58:07;;;;;;;0.00;0.00;;;8.20;99.90;;;;;;5097776;28;20054;-85
2022/12/26 12:00:37;;;;;;;;;;;8.20;99.90;;;;;;5099340;28;20040;-85
2022/12/26 12:03:47;;;;;;;0.00;0.00;;;8.10;99.90;;;;;;5107801;28;19973;-90
2022/12/26 12:06:48;;;;;;;0.00;0.00;;;8.10;99.90;;;;;;5097476;28;20499;-94
2022/12/26 12:12:49;;;;;;;;;;;;;;;;;;;;;
2022/12/26 12:15:50;;;;;;;;;;;;;;;;;;;;;
2022/12/26 12:19:07;;;;;;;0.10;0.10;;;8.70;99.90;;;;;;5125553;28;20072;-88
2022/12/26 12:22:15;;;;;;;0.00;0.00;;;8.60;99.90;;;;;;5113873;28;20044;-92
2022/12/26 12:25:03;;;;;;;0.00;0.00;;;8.60;99.90;;;;;;5099946;28;20039;-84
2022/12/26 12:27:47;;;;;;;0.10;0.10;;;8.60;99.90;;;;;;5097280;28;20052;-89
2022/12/26 12:30:37;;;;;;;0.00;0.00;;;9.00;99.90;;;;;;5107832;28;20039;-90
2022/12/26 12:33:59;;;;;;;;;;;;;;;;;;;;;
2022/12/26 12:37:13;;;;;;;;;;;;;;;;;;;;;
2022/12/26 12:44:03;;;;;;;0.98;0.30;;;10.00;99.90;;;;;;5082646;28;20104;-86
2022/12/26 12:46:56;;;;;;;0.20;0.20;;;10.20;99.90;;;;;;5000048;28;20054;-92
2022/12/26 12:53:44;;;;;;;0.00;0.00;;;10.00;99.90;;;;;;5057085;28;20057;-91
2022/12/26 12:57:03;;;;;;;0.00;0.00;;;9.80;99.90;;;;;;5102000;28;20087;-86
2022/12/26 12:59:33;;;;;;;0.00;0.00;;;9.50;99.90;;;;;;5088244;28;20040;-87
2022/12/26 13:02:05;;;;;;;0.17;0.15;;;9.10;99.90;;;;;;5098602;28;20047;-87
2022/12/26 13:04:40;;;;;;;0.00;0.00;;;8.80;99.90;;;;;;5096779;28;20079;-86
2022/12/26 13:07:38;;;;;;;0.00;0.00;;;8.50;99.90;;;;;;5096958;28;20050;-86
2022/12/26 13:10:20;;;;;;;2.25;0.90;;;8.30;99.90;;;;;;5076598;28;20067;-86
2022/12/26 13:12:50;;;;;;;0.30;0.22;;;8.20;99.90;;;;;;5097047;28;20134;-86
2022/12/26 13:15:36;;;;;;;0.00;0.00;;;8.10;99.90;;;;;;5095909;28;20513;-86
2022/12/26 13:18:14;;;;;;;0.00;0.00;;;8.00;99.90;;;;;;5113959;28;20483;-87
2022/12/26 13:21:05;;;;;;;0.00;0.00;;;8.00;99.90;;;;;;5096672;28;20096;-86
2022/12/26 13:26:52;;;;;;;0.00;0.00;;;8.00;99.90;;;;;;5113694;28;20087;-86
2022/12/26 13:29:30;;;;;;;0.08;0.08;;;7.90;99.90;;;;;;5113950;28;20140;-86
2022/12/26 13:31:58;;;;;;;0.00;0.00;;;7.90;99.90;;;;;;5113396;28;20054;-86
2022/12/26 13:34:24;;;;;;;0.00;0.00;;;7.90;99.90;;;;;;5096469;28;20047;-86
2022/12/26 13:36:55;;;;;;;0.00;0.00;;;7.90;99.90;;;;;;5096532;28;20047;-86
2022/12/26 13:39:31;;;;;;;0.95;0.43;;;7.80;99.90;;;;;;5113509;28;20104;-86
2022/12/26 13:45:51;;;;;;;0.00;0.00;;;7.60;99.90;;;;;;5112479;28;20052;-86
2022/12/26 13:48:17;;;;;;;0.00;0.00;;;7.50;99.90;;;;;;4998723;28;20119;-84
2022/12/26 13:51:24;;;;;;;;;;;;;;;;;;;;;
2022/12/26 13:58:33;;;;;;;0.00;0.00;;;7.60;99.90;;;;;;4956249;29;20108;-95
2022/12/26 14:01:42;;;;;;;0.00;0.00;;;7.60;99.90;;;;;;4991269;28;20044;-87
2022/12/26 14:04:54;;;;;;;0.00;0.00;;;7.60;99.90;;;;;;5101217;28;20407;-93
2022/12/26 14:07:33;;;;;;;0.00;0.00;;;7.60;99.90;;;;;;5103658;28;20032;-88
2022/12/26 14:13:49;;;;;;;0.77;0.32;;;7.40;99.90;;;;;;5119483;28;20484;-90
2022/12/26 14:20:03;;;;;;;0.00;0.00;;;7.30;99.90;;;;;;5116888;28;20040;-94
2022/12/26 14:23:23;;;;;;;0.00;0.00;;;7.20;99.90;;;;;;5103296;28;20042;-94
2022/12/26 14:30:00;;;;;;;;;;;;;;;;;;;;;
2022/12/26 14:36:07;;;;;;;0.00;0.00;;;6.90;99.90;;;;;;5064481;28;20136;-85
2022/12/26 14:45:31;;;;;;;0.00;0.00;;;6.80;99.90;;;;;;5060214;28;20048;-93
2022/12/26 14:47:57;;;;;;;0.00;0.00;;;6.60;99.90;;;;;;5057159;28;20052;-91
2022/12/26 14:50:31;;;;;;;0.30;0.10;;;6.50;99.90;;;;;;5058569;28;20476;-88
2022/12/26 15:04:30;;;;;;;0.90;0.70;;;6.20;99.90;;;;;;5000028;28;20528;-95
2022/12/26 15:11:23;;;;;;;0.22;0.22;;;6.00;99.90;;;;;;5083993;28;20122;-87
2022/12/26 15:22:24;;;;;;;0.00;0.00;;;5.80;99.90;;;;;;4886054;29;20140;-92
2022/12/26 15:25:35;;;;;;;0.00;0.00;;;5.70;99.90;;;;;;4934474;28;20071;-93
2022/12/26 15:28:55;;;;;;;0.00;0.00;;;5.60;99.90;;;;;;4923667;28;20079;-87
2022/12/26 15:31:42;;;;;;;0.00;0.00;;;5.50;99.90;;;;;;4866552;29;20128;-88
2022/12/26 15:34:26;;;;;;;0.95;0.15;;;5.60;99.90;;;;;;4920009;28;20154;-87
2022/12/26 15:37:02;;;;;;;0.00;0.00;;;5.50;99.90;;;;;;5009350;28;20117;-87
2022/12/26 15:40:13;;;;;;;0.00;0.00;;;5.50;99.90;;;;;;5073358;28;20484;-88
2022/12/26 15:43:22;;;;;;;0.00;0.00;;;5.50;99.90;;;;;;5073955;28;20066;-89
2022/12/26 15:46:27;;;;;;;0.00;0.00;;;5.40;99.90;;;;;;5057494;28;20045;-89
2022/12/26 15:49:24;;;;;;;;;;;;;;;;;;;;;
2022/12/26 15:51:59;;;;;;;0.10;0.10;;;5.40;99.90;;;;;;5073617;28;20106;-86
2022/12/26 15:54:34;;;;;;;1.65;0.45;;;5.40;99.90;;;;;;5057853;28;20052;-86
2022/12/26 15:57:27;;;;;;;0.00;0.00;;;5.30;99.90;;;;;;5056982;28;20063;-87
2022/12/26 16:00:36;;;;;;;;;;;;;;;;;;;;;
2022/12/26 16:03:23;;;;;;;0.00;0.00;;;5.30;99.90;;;;;;5061902;28;20415;-90
2022/12/26 16:06:21;;;;;;;0.10;0.10;;;5.30;99.90;;;;;;5073927;28;20090;-90
2022/12/26 16:09:04;;;;;;;0.15;0.10;;;5.30;99.90;;;;;;5056588;28;20051;-89
2022/12/26 16:12:07;;;;;;;0.00;0.00;;;5.30;99.90;;;;;;5056378;28;20052;-88
2022/12/26 16:15:00;;;;;;;;;;;;;;;;;;;;;
2022/12/26 16:17:30;;;;;;;0.00;0.00;;;5.30;99.90;;;;;;5064942;28;20066;-86
2022/12/26 16:20:14;;;;;;;0.00;0.00;;;5.20;99.90;;;;;;5054943;28;20048;-87
2022/12/26 16:23:27;;;;;;;;;;;;;;;;;;;;;
2022/12/26 16:26:28;;;;;;;0.00;0.00;;;5.20;99.90;;;;;;5045532;28;20055;-88
2022/12/26 16:29:38;;;;;;;0.15;0.15;;;5.10;99.90;;;;;;5043884;28;20044;-94
2022/12/26 16:33:04;;;;;;;;;;;;;;;;;;;;;
2022/12/26 16:36:07;;;;;;;0.00;0.00;;;4.90;99.90;;;;;;4969570;28;20082;-95
2022/12/26 16:39:28;;;;;;;;;;;;;;;;;;;;;
2022/12/26 16:49:26;;;;;;;;;;;;;;;;;;;;;
2022/12/26 16:52:20;;;;;;;;;;;;;;;;;;;;;
2022/12/26 16:58:44;;;;;;;;;;;;;;;;;;;;;
2022/12/26 17:02:00;;;;;;;;;;;;;;;;;;;;;
2022/12/26 17:05:21;;;;;;;;;;;;;;;;;;;;;
2022/12/26 17:08:31;;;;;;;;;;;;;;;;;;;;;
2022/12/26 17:11:33;;;;;;;0.90;0.10;;;4.80;99.90;;;;;;5056075;28;20509;-91
2022/12/26 17:14:33;;;;;;;;;;;;;;;;;;;;;
2022/12/26 17:17:23;;;;;;;0.00;0.00;;;4.70;99.90;;;;;;5051817;28;20075;-87
2022/12/26 17:20:12;;;;;;;0.00;0.00;;;4.70;99.90;;;;;;5023520;28;20098;-88
2022/12/26 17:22:38;;;;;;;0.00;0.00;;;4.70;99.90;;;;;;5007156;28;20048;-89
2022/12/26 17:25:19;;;;;;;0.05;0.05;;;4.70;99.90;;;;;;5022225;28;20485;-88
2022/12/26 17:28:13;;;;;;;0.00;0.00;;;4.60;99.90;;;;;;5021825;28;20055;-89
2022/12/26 17:30:51;;;;;;;0.00;0.00;;;4.60;99.90;;;;;;5022030;28;20037;-88
2022/12/26 17:33:53;;;;;;;0.00;0.00;;;4.70;99.90;;;;;;5021610;28;20048;-95
2022/12/26 17:36:36;;;;;;;0.25;0.25;;;4.50;99.90;;;;;;5022154;28;20079;-90
2022/12/26 17:39:31;;;;;;;0.00;0.00;;;4.50;99.90;;;;;;5022057;28;20041;-89
2022/12/26 17:45:20;;;;;;;0.22;0.22;;;4.40;99.90;;;;;;5027426;28;20053;-90
2022/12/26 17:48:05;;;;;;;0.00;0.00;;;4.40;99.90;;;;;;5026575;28;20087;-91
2022/12/26 17:50:50;;;;;;;0.00;0.00;;;4.40;99.90;;;;;;5038810;28;20041;-94
2022/12/26 17:53:47;;;;;;;0.00;0.00;;;4.30;99.90;;;;;;5022608;28;20061;-94
2022/12/26 17:56:24;;;;;;;0.00;0.00;;;4.30;99.90;;;;;;5024438;28;20404;-95
2022/12/26 17:59:26;;;;;;;;;;;;;;;;;;;;;
2022/12/26 18:02:24;;;;;;;0.55;0.22;;;4.20;99.90;;;;;;5025287;28;20051;-92
2022/12/26 18:04:50;;;;;;;0.05;0.00;;;4.20;99.90;;;;;;4975501;28;20166;-87